Time;durP1;ratioP1;P1;durP2;ratioP2;P2;SDS_P1;SDS_P2;PMS_P1;PMS_P2;Temp;Humidity;BMP_temperature;BMP_pressure;BME280_temperature;BME280_humidity;BME280_pressure;Samples;Min_cycle;Max_cycle;Signal;HPM_P1;HPM_P2
2021/06/01 00:02:14;;;;;;;8.23;4.57;;;;;;;;;;10260317;28;20042;-64
2021/06/01 00:07:12;;;;;;;8.93;4.67;;;;;;;;;;10258649;28;20041;-61
2021/06/01 00:12:09;;;;;;;6.83;4.43;;;;;;;;;;10261637;28;20042;-61
2021/06/01 00:17:07;;;;;;;9.30;5.17;;;;;;;;;;10258026;28;20033;-60
2021/06/01 00:22:05;;;;;;;6.95;4.50;;;;;;;;;;10244554;28;20032;-61
2021/06/01 00:27:02;;;;;;;9.20;5.73;;;;;;;;;;10257361;28;20030;-61
2021/06/01 00:32:00;;;;;;;10.57;6.10;;;;;;;;;;10261493;28;20046;-61
2021/06/01 00:36:57;;;;;;;8.97;6.53;;;;;;;;;;10270487;28;20124;-61
2021/06/01 00:41:56;;;;;;;9.82;6.05;;;;;;;;;;10272509;28;20064;-61
2021/06/01 00:46:53;;;;;;;8.37;5.93;;;;;;;;;;10315775;28;20745;-61
2021/06/01 00:51:52;;;;;;;10.50;7.37;;;;;;;;;;10311145;28;20877;-61
2021/06/01 00:56:49;;;;;;;11.68;7.43;;;;;;;;;;10313752;28;20072;-61
2021/06/01 01:01:47;;;;;;;11.20;7.73;;;;;;;;;;10305297;28;20112;-60
2021/06/01 01:06:47;;;;;;;11.67;7.33;;;;;;;;;;10292454;28;20025;-61
2021/06/01 01:11:57;;;;;;;12.70;8.48;;;;;;;;;;10308561;28;20040;-61
2021/06/01 01:17:00;;;;;;;14.02;8.43;;;;;;;;;;10308170;28;20437;-61
2021/06/01 01:21:57;;;;;;;12.32;7.57;;;;;;;;;;10307099;28;20033;-61
2021/06/01 01:27:15;;;;;;;11.03;7.57;;;;;;;;;;10292264;28;20091;-61
2021/06/01 01:32:32;;;;;;;10.73;7.90;;;;;;;;;;10307743;28;20254;-61
2021/06/01 01:37:32;;;;;;;14.95;8.50;;;;;;;;;;10306894;28;20098;-62
2021/06/01 01:42:38;;;;;;;11.52;7.80;;;;;;;;;;10324305;28;20466;-61
2021/06/01 01:52:43;;;;;;;11.40;5.20;;;;;;;;;;10300138;28;20122;-61
2021/06/01 01:57:45;;;;;;;7.68;5.20;;;;;;;;;;10322344;28;20171;-61
2021/06/01 02:02:45;;;;;;;12.00;6.05;;;;;;;;;;10299946;28;20044;-61
2021/06/01 02:07:42;;;;;;;9.68;5.95;;;;;;;;;;10311302;28;20044;-62
2021/06/01 02:12:40;;;;;;;10.77;5.83;;;;;;;;;;10319997;28;20128;-61
2021/06/01 02:17:37;;;;;;;11.53;5.93;;;;;;;;;;10317058;28;20043;-61
2021/06/01 02:28:13;;;;;;;8.77;6.22;;;;;;;;;;10306929;28;20037;-61
2021/06/01 02:33:11;;;;;;;9.60;5.70;;;;;;;;;;10318480;28;20121;-62
2021/06/01 02:38:09;;;;;;;14.67;6.50;;;;;;;;;;10324150;28;20120;-62
2021/06/01 02:43:08;;;;;;;14.82;6.10;;;;;;;;;;10320366;28;20068;-61
2021/06/01 02:48:06;;;;;;;12.48;6.10;;;;;;;;;;10313584;28;20089;-62
2021/06/01 02:53:05;;;;;;;13.88;6.50;;;;;;;;;;10327124;28;20044;-61
2021/06/01 02:58:06;;;;;;;12.18;6.47;;;;;;;;;;10327737;28;20037;-61
2021/06/01 03:03:12;;;;;;;10.70;6.93;;;;;;;;;;10330050;28;20140;-61
2021/06/01 03:08:10;;;;;;;14.88;7.78;;;;;;;;;;10324511;28;20075;-61
2021/06/01 03:13:07;;;;;;;9.60;6.13;;;;;;;;;;10316404;28;20069;-61
2021/06/01 03:18:05;;;;;;;11.33;6.77;;;;;;;;;;10334086;28;20021;-62
2021/06/01 03:23:02;;;;;;;12.53;7.43;;;;;;;;;;10307879;28;20115;-61
2021/06/01 03:28:00;;;;;;;13.67;7.63;;;;;;;;;;10307137;28;20398;-62
2021/06/01 03:32:57;;;;;;;13.47;7.33;;;;;;;;;;10326976;28;20033;-62
2021/06/01 03:37:55;;;;;;;2.73;2.00;;;;;;;;;;10298184;28;20033;-62
2021/06/01 03:42:53;;;;;;;4.05;2.25;;;;;;;;;;10324004;28;20037;-62
2021/06/01 03:47:51;;;;;;;2.53;2.07;;;;;;;;;;10332480;28;20120;-62
2021/06/01 03:52:48;;;;;;;3.97;2.33;;;;;;;;;;10308085;28;20037;-61
2021/06/01 03:57:47;;;;;;;3.30;2.00;;;;;;;;;;10321948;28;20062;-61
2021/06/01 04:02:44;;;;;;;2.65;1.80;;;;;;;;;;10310597;28;20044;-61
2021/06/01 04:07:44;;;;;;;7.87;2.33;;;;;;;;;;10309216;28;20045;-61
2021/06/01 04:12:41;;;;;;;6.25;2.40;;;;;;;;;;10319443;28;20033;-62
2021/06/01 04:17:39;;;;;;;7.20;2.60;;;;;;;;;;10319850;28;20529;-62
2021/06/01 04:22:36;;;;;;;5.33;2.67;;;;;;;;;;10311763;28;20808;-61
2021/06/01 04:27:34;;;;;;;5.67;2.40;;;;;;;;;;10318549;28;20133;-62
2021/06/01 04:32:32;;;;;;;6.37;2.60;;;;;;;;;;10320492;28;20044;-62
2021/06/01 04:37:29;;;;;;;3.93;3.07;;;;;;;;;;10329080;28;20041;-61
2021/06/01 04:42:27;;;;;;;4.07;2.60;;;;;;;;;;10319011;28;20033;-62
2021/06/01 04:47:24;;;;;;;3.53;2.60;;;;;;;;;;10310613;28;20126;-62
2021/06/01 04:52:22;;;;;;;4.37;2.87;;;;;;;;;;10325155;28;20083;-61
2021/06/01 04:57:19;;;;;;;6.07;3.10;;;;;;;;;;10320894;28;20167;-62
2021/06/01 05:02:17;;;;;;;5.00;3.30;;;;;;;;;;10284784;28;20387;-62
2021/06/01 05:07:14;;;;;;;6.63;2.87;;;;;;;;;;10250390;28;20487;-61
2021/06/01 05:12:12;;;;;;;5.03;2.70;;;;;;;;;;10298902;28;20150;-62
2021/06/01 05:17:09;;;;;;;7.63;3.17;;;;;;;;;;10310679;28;20052;-62
2021/06/01 05:22:06;;;;;;;3.90;2.20;;;;;;;;;;10314040;28;20035;-62
2021/06/01 05:27:04;;;;;;;3.50;2.40;;;;;;;;;;10323902;28;20029;-62
2021/06/01 05:32:17;;;;;;;8.07;2.53;;;;;;;;;;10322033;28;20060;-62
2021/06/01 05:37:15;;;;;;;5.10;2.70;;;;;;;;;;10304414;28;20044;-62
2021/06/01 05:42:12;;;;;;;2.97;2.40;;;;;;;;;;10321200;28;20033;-61
2021/06/01 05:47:09;;;;;;;3.77;2.53;;;;;;;;;;10309204;28;20035;-62
2021/06/01 05:52:07;;;;;;;6.67;3.00;;;;;;;;;;10321912;28;20471;-62
2021/06/01 05:57:05;;;;;;;6.70;3.47;;;;;;;;;;10321470;28;20395;-62
2021/06/01 06:02:03;;;;;;;8.50;3.27;;;;;;;;;;10317114;28;20610;-62
2021/06/01 06:07:00;;;;;;;4.43;2.57;;;;;;;;;;10326167;28;20121;-62
2021/06/01 06:11:58;;;;;;;4.73;2.40;;;;;;;;;;10315081;28;20083;-62
2021/06/01 06:16:56;;;;;;;4.38;2.00;;;;;;;;;;10321713;28;20032;-63
2021/06/01 06:21:54;;;;;;;;;;;;;;;;;;10329949;28;20056;-62
2021/06/01 06:26:51;;;;;;;8.73;4.30;;;;;;;;;;10325376;28;19928;-63
2021/06/01 06:31:48;;;;;;;1.40;0.93;;;;;;;;;;10326968;28;20752;-63
2021/06/01 06:36:46;;;;;;;2.13;1.70;;;;;;;;;;10339386;28;20529;-62
2021/06/01 06:41:43;;;;;;;2.00;1.80;;;;;;;;;;10308840;28;20040;-63
2021/06/01 06:46:43;;;;;;;2.30;0.97;;;;;;;;;;10322623;28;20041;-63
2021/06/01 06:51:40;;;;;;;1.67;0.98;;;;;;;;;;10326247;28;20041;-63
2021/06/01 06:56:38;;;;;;;9.60;1.73;;;;;;;;;;10323417;28;20033;-63
2021/06/01 07:01:37;;;;;;;1.30;0.80;;;;;;;;;;10336287;28;20490;-63
2021/06/01 07:06:34;;;;;;;0.77;0.77;;;;;;;;;;10326835;28;20064;-63
2021/06/01 07:11:32;;;;;;;;;;;;;;;;;;10319874;28;20123;-63
2021/06/01 07:16:29;;;;;;;4.60;1.73;;;;;;;;;;10333283;28;20788;-63
2021/06/01 07:21:26;;;;;;;;;;;;;;;;;;10310156;28;20037;-63
2021/06/01 07:26:24;;;;;;;0.90;0.67;;;;;;;;;;10318766;28;19917;-63
2021/06/01 07:31:23;;;;;;;3.83;1.67;;;;;;;;;;10311393;28;20119;-63
2021/06/01 07:36:20;;;;;;;2.97;1.85;;;;;;;;;;10315328;28;20191;-63
2021/06/01 07:41:18;;;;;;;5.57;1.48;;;;;;;;;;10301511;28;20124;-63
2021/06/01 07:46:15;;;;;;;2.42;1.55;;;;;;;;;;10306297;28;20029;-63
2021/06/01 07:51:13;;;;;;;4.57;2.20;;;;;;;;;;10310333;28;20450;-63
2021/06/01 07:56:11;;;;;;;5.95;1.88;;;;;;;;;;10307963;28;20152;-63
2021/06/01 08:01:09;;;;;;;3.83;0.97;;;;;;;;;;10312533;28;20037;-63
2021/06/01 08:06:06;;;;;;;4.10;1.17;;;;;;;;;;10313738;28;20294;-63
2021/06/01 08:11:04;;;;;;;0.73;0.68;;;;;;;;;;10314085;28;20300;-63
2021/06/01 08:16:03;;;;;;;2.10;1.55;;;;;;;;;;10323016;28;20071;-63
2021/06/01 08:21:12;;;;;;;1.92;1.13;;;;;;;;;;10325177;28;20151;-64
2021/06/01 08:26:10;;;;;;;3.50;1.55;;;;;;;;;;10319387;28;20035;-64
2021/06/01 08:31:07;;;;;;;4.07;2.13;;;;;;;;;;10313674;28;20412;-64
2021/06/01 08:36:05;;;;;;;4.30;1.87;;;;;;;;;;10315801;28;20068;-63
2021/06/01 08:41:03;;;;;;;3.88;2.50;;;;;;;;;;10325304;28;20061;-63
2021/06/01 08:46:00;;;;;;;4.13;2.60;;;;;;;;;;10316009;28;20067;-64
2021/06/01 08:50:58;;;;;;;8.60;3.15;;;;;;;;;;10313024;28;20040;-64
2021/06/01 08:55:55;;;;;;;9.53;2.90;;;;;;;;;;10308710;28;20032;-64
2021/06/01 09:00:53;;;;;;;1.20;1.10;;;;;;;;;;10299512;28;20815;-63
2021/06/01 09:11:31;;;;;;;4.28;2.25;;;;;;;;;;10320801;28;20499;-63
2021/06/01 09:21:46;;;;;;;1.23;0.70;;;;;;;;;;10321105;28;20041;-64
2021/06/01 09:26:48;;;;;;;3.28;2.38;;;;;;;;;;10306825;28;20110;-63
2021/06/01 09:32:09;;;;;;;5.35;2.80;;;;;;;;;;10315076;28;20720;-63
2021/06/01 09:37:22;;;;;;;1.08;0.73;;;;;;;;;;10309301;28;20052;-63
2021/06/01 09:42:25;;;;;;;3.50;2.22;;;;;;;;;;10312401;28;20025;-63
2021/06/01 09:47:39;;;;;;;3.15;2.55;;;;;;;;;;10308573;28;20136;-63
2021/06/01 09:52:46;;;;;;;6.47;2.08;;;;;;;;;;10319343;28;20041;-64
2021/06/01 09:57:44;;;;;;;2.13;1.95;;;;;;;;;;10323252;28;20526;-63
2021/06/01 10:02:42;;;;;;;3.33;2.40;;;;;;;;;;10318555;28;20411;-64
2021/06/01 10:07:40;;;;;;;1.85;0.93;;;;;;;;;;10325504;28;20065;-63
2021/06/01 10:12:38;;;;;;;1.85;0.75;;;;;;;;;;10309540;28;20522;-62
2021/06/01 10:17:35;;;;;;;7.22;4.03;;;;;;;;;;10327208;28;20447;-63
2021/06/01 10:22:33;;;;;;;3.85;2.70;;;;;;;;;;10292733;28;20459;-64
2021/06/01 10:27:31;;;;;;;6.13;3.40;;;;;;;;;;10331233;28;20639;-63
2021/06/01 10:32:30;;;;;;;5.07;3.35;;;;;;;;;;10308900;28;20146;-63
2021/06/01 10:43:13;;;;;;;8.37;2.80;;;;;;;;;;10315177;28;20026;-64
2021/06/01 10:53:40;;;;;;;5.95;3.22;;;;;;;;;;10311828;28;20099;-64
2021/06/01 10:58:40;;;;;;;6.80;3.67;;;;;;;;;;10319473;28;20387;-64
2021/06/01 11:03:57;;;;;;;2.72;1.98;;;;;;;;;;10320747;28;20041;-66
2021/06/01 11:08:54;;;;;;;9.48;3.65;;;;;;;;;;10319293;28;20036;-63
2021/06/01 11:13:53;;;;;;;5.67;3.40;;;;;;;;;;10309844;28;20510;-66
2021/06/01 11:18:54;;;;;;;4.45;3.05;;;;;;;;;;10306046;28;20037;-66
2021/06/01 11:32:48;;;;;;;11.93;4.32;;;;;;;;;;10311755;28;20041;-65
2021/06/01 11:34:23;;;;;;;5.85;3.40;;;;;;;;;;10314038;28;20053;-66
2021/06/01 11:39:44;;;;;;;11.20;4.00;;;;;;;;;;10303477;28;20516;-66
2021/06/01 11:44:42;;;;;;;8.15;2.60;;;;;;;;;;10316651;28;20083;-64
2021/06/01 11:54:55;;;;;;;5.53;2.95;;;;;;;;;;10295628;28;20381;-64
2021/06/01 12:05:23;;;;;;;4.93;3.38;;;;;;;;;;10312426;28;20368;-63
2021/06/01 12:21:03;;;;;;;5.38;3.08;;;;;;;;;;10320974;28;20520;-63
2021/06/01 12:26:10;;;;;;;1.85;1.45;;;;;;;;;;10285077;28;20335;-63
2021/06/01 12:31:10;;;;;;;3.13;1.63;;;;;;;;;;10316259;28;20033;-63
2021/06/01 12:42:01;;;;;;;2.47;2.22;;;;;;;;;;10123354;28;20035;-63
2021/06/01 12:47:35;;;;;;;1.30;1.20;;;;;;;;;;10275821;28;20040;-63
2021/06/01 13:14:07;;;;;;;2.70;1.48;;;;;;;;;;10320638;28;20033;-62
2021/06/01 13:30:12;;;;;;;1.15;0.65;;;;;;;;;;10303932;28;20223;-62
2021/06/01 13:40:14;;;;;;;3.08;1.23;;;;;;;;;;10301501;28;20438;-62
2021/06/01 13:51:11;;;;;;;1.20;0.95;;;;;;;;;;10324971;28;20037;-62
2021/06/01 14:38:30;;;;;;;0.80;0.65;;;;;;;;;;10307044;28;20045;-65
2021/06/01 16:23:36;;;;;;;6.38;2.60;;;;;;;;;;10311761;28;20116;-65
2021/06/01 17:05:21;;;;;;;1.30;0.98;;;;;;;;;;10287913;28;20037;-66
2021/06/01 17:15:36;;;;;;;2.88;1.35;;;;;;;;;;10303905;28;20596;-64
2021/06/01 17:36:30;;;;;;;0.75;0.60;;;;;;;;;;10309819;28;20128;-64
2021/06/01 17:41:32;;;;;;;0.87;0.63;;;;;;;;;;10291080;28;20116;-65
2021/06/01 17:46:34;;;;;;;1.95;0.80;;;;;;;;;;10315078;28;20048;-65
2021/06/01 17:51:31;;;;;;;1.20;1.10;;;;;;;;;;10299506;28;20120;-65
2021/06/01 17:56:29;;;;;;;1.35;0.88;;;;;;;;;;10313228;28;20140;-64
2021/06/01 18:01:28;;;;;;;2.63;1.60;;;;;;;;;;10301482;28;20037;-65
2021/06/01 18:06:30;;;;;;;0.38;0.32;;;;;;;;;;10312965;28;20074;-66
2021/06/01 19:51:59;;;;;;;1.58;0.73;;;;;;;;;;10320244;28;20074;-65
2021/06/01 19:56:56;;;;;;;0.82;0.70;;;;;;;;;;10314846;28;20059;-64
2021/06/01 20:01:53;;;;;;;;;;;;;;;;;;10320464;28;20051;-65
2021/06/01 20:06:51;;;;;;;1.40;1.00;;;;;;;;;;10314135;28;19920;-65
2021/06/01 20:11:48;;;;;;;;;;;;;;;;;;10311590;28;20145;-63
2021/06/01 20:16:49;;;;;;;4.50;3.50;;;;;;;;;;10291489;28;20012;-63
2021/06/01 20:21:51;;;;;;;4.63;3.45;;;;;;;;;;10288895;28;20484;-65
2021/06/01 20:26:49;;;;;;;5.65;3.97;;;;;;;;;;10321465;28;20128;-64
2021/06/01 20:31:56;;;;;;;5.17;3.40;;;;;;;;;;10299173;28;20349;-63
2021/06/01 20:36:53;;;;;;;5.88;4.25;;;;;;;;;;10293814;28;20048;-64
2021/06/01 20:41:52;;;;;;;5.73;4.00;;;;;;;;;;10291541;28;20041;-65
2021/06/01 20:46:50;;;;;;;6.97;5.10;;;;;;;;;;10284928;28;20796;-65
2021/06/01 20:51:47;;;;;;;11.23;5.13;;;;;;;;;;10303229;28;20504;-65
2021/06/01 20:56:46;;;;;;;5.87;5.27;;;;;;;;;;10305620;28;20037;-65
2021/06/01 21:01:44;;;;;;;7.85;4.93;;;;;;;;;;10266301;28;20553;-63
2021/06/01 21:06:43;;;;;;;7.57;4.50;;;;;;;;;;10295278;28;20091;-62
2021/06/01 21:11:41;;;;;;;4.70;2.67;;;;;;;;;;10305861;28;21241;-63
2021/06/01 21:16:38;;;;;;;5.78;3.00;;;;;;;;;;10303288;28;20106;-64
2021/06/01 21:21:36;;;;;;;8.07;3.73;;;;;;;;;;10318101;28;20048;-63
2021/06/01 21:26:34;;;;;;;4.50;2.58;;;;;;;;;;10324213;28;20033;-64
2021/06/01 21:31:39;;;;;;;3.97;3.07;;;;;;;;;;10315449;28;20231;-64
2021/06/01 21:36:40;;;;;;;4.78;2.92;;;;;;;;;;10312097;28;20040;-64
2021/06/01 21:41:38;;;;;;;4.18;2.67;;;;;;;;;;10288295;28;20142;-64
2021/06/01 21:46:36;;;;;;;5.15;2.30;;;;;;;;;;10319498;28;20083;-64
2021/06/01 21:51:34;;;;;;;4.82;1.92;;;;;;;;;;10309683;28;20029;-65
2021/06/01 21:56:31;;;;;;;4.73;2.70;;;;;;;;;;10308522;28;20064;-65
2021/06/01 22:01:29;;;;;;;3.90;2.33;;;;;;;;;;10309147;28;20429;-65
2021/06/01 22:06:27;;;;;;;1.13;0.93;;;;;;;;;;10298956;28;20069;-64
2021/06/01 22:11:24;;;;;;;3.33;1.67;;;;;;;;;;10321638;28;20156;-64
2021/06/01 22:16:24;;;;;;;6.00;1.67;;;;;;;;;;10303866;28;20037;-65
2021/06/01 22:21:22;;;;;;;3.53;1.67;;;;;;;;;;10299237;28;20775;-65
2021/06/01 22:26:21;;;;;;;2.07;1.13;;;;;;;;;;10310625;28;20033;-64
2021/06/01 22:31:21;;;;;;;3.00;1.80;;;;;;;;;;10323627;28;20100;-63
2021/06/01 22:36:19;;;;;;;8.40;2.38;;;;;;;;;;10313205;28;20103;-65
2021/06/01 22:41:18;;;;;;;4.20;2.20;;;;;;;;;;10300584;28;20610;-64
2021/06/01 22:46:16;;;;;;;5.18;1.88;;;;;;;;;;10312222;28;20034;-63
2021/06/01 22:51:15;;;;;;;1.90;1.20;;;;;;;;;;10294516;28;20109;-64
2021/06/01 22:56:14;;;;;;;2.10;1.13;;;;;;;;;;10313565;28;20637;-64
2021/06/01 23:01:16;;;;;;;4.57;1.35;;;;;;;;;;10309862;28;20036;-64
2021/06/01 23:06:18;;;;;;;1.95;1.27;;;;;;;;;;10316550;28;20566;-65
2021/06/01 23:11:16;;;;;;;1.83;1.27;;;;;;;;;;10323454;28;20030;-64
2021/06/01 23:16:13;;;;;;;3.97;1.65;;;;;;;;;;10327069;28;20058;-63
2021/06/01 23:21:11;;;;;;;2.80;1.00;;;;;;;;;;10319137;28;20068;-64
2021/06/01 23:26:09;;;;;;;3.40;1.45;;;;;;;;;;10320417;28;20175;-63
2021/06/01 23:31:07;;;;;;;0.50;0.50;;;;;;;;;;10303093;28;20051;-64
2021/06/01 23:36:06;;;;;;;5.00;1.23;;;;;;;;;;10311860;28;20498;-63
2021/06/01 23:41:03;;;;;;;2.65;1.55;;;;;;;;;;10309856;28;20060;-64
2021/06/01 23:46:05;;;;;;;1.13;0.57;;;;;;;;;;10295784;28;20025;-63
2021/06/01 23:51:03;;;;;;;2.50;1.42;;;;;;;;;;10291981;28;20068;-64
2021/06/01 23:56:00;;;;;;;3.60;1.47;;;;;;;;;;10294483;28;20056;-65
